sensor_id;sensor_type;location;lat;lon;timestamp;pressure;altitude;pressure_sealevel;temperature;humidity
42601;BME280;28229;48.856;9.088;2022-09-12T00:01:08;98103.59;;;12.63;98.52
42601;BME280;28229;48.856;9.088;2022-09-12T00:03:35;98100.94;;;12.51;97.98
42601;BME280;28229;48.856;9.088;2022-09-12T00:06:07;98093.84;;;12.64;98.49
42601;BME280;28229;48.856;9.088;2022-09-12T00:08:33;98096.81;;;12.55;99.00
42601;BME280;28229;48.856;9.088;2022-09-12T00:11:03;98092.16;;;12.69;99.59
42601;BME280;28229;48.856;9.088;2022-09-12T00:13:29;98092.25;;;12.63;98.65
42601;BME280;28229;48.856;9.088;2022-09-12T00:15:55;98099.59;;;12.61;98.57
42601;BME280;28229;48.856;9.088;2022-09-12T00:18:21;98100.03;;;12.57;98.32
42601;BME280;28229;48.856;9.088;2022-09-12T00:20:47;98089.16;;;12.66;98.83
42601;BME280;28229;48.856;9.088;2022-09-12T00:23:13;98090.75;;;12.67;97.80
42601;BME280;28229;48.856;9.088;2022-09-12T00:25:43;98098.69;;;12.67;96.73
42601;BME280;28229;48.856;9.088;2022-09-12T00:28:11;98091.59;;;12.79;95.04
42601;BME280;28229;48.856;9.088;2022-09-12T00:30:48;98087.69;;;12.70;96.05
42601;BME280;28229;48.856;9.088;2022-09-12T00:33:15;98083.41;;;12.57;97.52
42601;BME280;28229;48.856;9.088;2022-09-12T00:35:43;98084.66;;;12.54;98.07
42601;BME280;28229;48.856;9.088;2022-09-12T00:38:11;98085.69;;;12.65;97.93
42601;BME280;28229;48.856;9.088;2022-09-12T00:40:37;98084.84;;;12.41;98.16
42601;BME280;28229;48.856;9.088;2022-09-12T00:43:03;98087.44;;;12.29;99.36
42601;BME280;28229;48.856;9.088;2022-09-12T00:45:30;98085.81;;;12.16;99.73
42601;BME280;28229;48.856;9.088;2022-09-12T00:48:00;98087.13;;;12.07;99.99
42601;BME280;28229;48.856;9.088;2022-09-12T00:50:28;98082.44;;;12.09;100.00
42601;BME280;28229;48.856;9.088;2022-09-12T00:53:02;98077.75;;;12.11;98.69
42601;BME280;28229;48.856;9.088;2022-09-12T00:55:31;98070.47;;;11.95;99.07
42601;BME280;28229;48.856;9.088;2022-09-12T00:58:22;98078.28;;;11.83;100.00
42601;BME280;28229;48.856;9.088;2022-09-12T01:00:50;98080.03;;;11.71;100.00
42601;BME280;28229;48.856;9.088;2022-09-12T01:03:18;98082.88;;;11.69;100.00
42601;BME280;28229;48.856;9.088;2022-09-12T01:08:31;98067.88;;;11.88;100.00
42601;BME280;28229;48.856;9.088;2022-09-12T01:10:57;98062.56;;;11.76;100.00
42601;BME280;28229;48.856;9.088;2022-09-12T01:13:23;98063.34;;;11.95;100.00
42601;BME280;28229;48.856;9.088;2022-09-12T01:15:50;98053.75;;;12.01;100.00
42601;BME280;28229;48.856;9.088;2022-09-12T01:21:19;98048.22;;;11.91;100.00
42601;BME280;28229;48.856;9.088;2022-09-12T01:27:12;98051.72;;;11.66;100.00
42601;BME280;28229;48.856;9.088;2022-09-12T01:33:03;98044.34;;;11.38;100.00
42601;BME280;28229;48.856;9.088;2022-09-12T01:38:28;98040.22;;;11.42;100.00
42601;BME280;28229;48.856;9.088;2022-09-12T01:44:01;98037.81;;;11.40;100.00
42601;BME280;28229;48.856;9.088;2022-09-12T01:46:39;98031.72;;;11.58;100.00
42601;BME280;28229;48.856;9.088;2022-09-12T01:52:48;98043.53;;;11.37;100.00
42601;BME280;28229;48.856;9.088;2022-09-12T01:54:59;98029.91;;;11.22;100.00
42601;BME280;28229;48.856;9.088;2022-09-12T01:57:32;98028.66;;;11.24;100.00
42601;BME280;28229;48.856;9.088;2022-09-12T02:00:06;98030.94;;;11.39;100.00
42601;BME280;28229;48.856;9.088;2022-09-12T02:05:30;98023.59;;;11.60;100.00
42601;BME280;28229;48.856;9.088;2022-09-12T02:08:14;98019.38;;;11.59;100.00
42601;BME280;28229;48.856;9.088;2022-09-12T02:10:55;98024.47;;;11.72;100.00
42601;BME280;28229;48.856;9.088;2022-09-12T02:16:06;98020.72;;;11.50;100.00
42601;BME280;28229;48.856;9.088;2022-09-12T02:18:37;98024.88;;;11.39;100.00
42601;BME280;28229;48.856;9.088;2022-09-12T02:21:05;98020.06;;;11.36;100.00
42601;BME280;28229;48.856;9.088;2022-09-12T02:23:32;98019.38;;;11.40;100.00
42601;BME280;28229;48.856;9.088;2022-09-12T02:26:03;98015.59;;;11.36;100.00
42601;BME280;28229;48.856;9.088;2022-09-12T02:28:34;98011.22;;;11.30;100.00
42601;BME280;28229;48.856;9.088;2022-09-12T02:31:18;98011.22;;;11.30;100.00
42601;BME280;28229;48.856;9.088;2022-09-12T02:39:28;98009.59;;;11.29;100.00
42601;BME280;28229;48.856;9.088;2022-09-12T02:41:56;98012.50;;;11.21;100.00
42601;BME280;28229;48.856;9.088;2022-09-12T02:44:24;98009.97;;;11.14;100.00
42601;BME280;28229;48.856;9.088;2022-09-12T02:46:55;98005.34;;;11.10;100.00
42601;BME280;28229;48.856;9.088;2022-09-12T02:49:23;98001.69;;;11.11;100.00
42601;BME280;28229;48.856;9.088;2022-09-12T02:51:49;97998.44;;;11.09;100.00
42601;BME280;28229;48.856;9.088;2022-09-12T02:54:16;98001.38;;;11.00;100.00
42601;BME280;28229;48.856;9.088;2022-09-12T02:56:44;98006.13;;;10.92;100.00
42601;BME280;28229;48.856;9.088;2022-09-12T02:59:14;98003.84;;;10.95;100.00
42601;BME280;28229;48.856;9.088;2022-09-12T03:07:13;97995.44;;;10.86;100.00
42601;BME280;28229;48.856;9.088;2022-09-12T03:09:54;97998.34;;;10.78;100.00
42601;BME280;28229;48.856;9.088;2022-09-12T03:15:21;97999.25;;;10.65;100.00
42601;BME280;28229;48.856;9.088;2022-09-12T03:20:36;98002.06;;;10.71;100.00
42601;BME280;28229;48.856;9.088;2022-09-12T03:23:36;97998.22;;;10.73;100.00
42601;BME280;28229;48.856;9.088;2022-09-12T03:26:14;98007.69;;;10.74;100.00
42601;BME280;28229;48.856;9.088;2022-09-12T03:28:42;98000.59;;;10.75;100.00
42601;BME280;28229;48.856;9.088;2022-09-12T03:31:17;97994.59;;;10.67;100.00
42601;BME280;28229;48.856;9.088;2022-09-12T03:33:44;98001.75;;;10.60;100.00
42601;BME280;28229;48.856;9.088;2022-09-12T03:36:36;97997.94;;;10.56;100.00
42601;BME280;28229;48.856;9.088;2022-09-12T03:39:02;97997.56;;;10.53;100.00
42601;BME280;28229;48.856;9.088;2022-09-12T03:41:28;97999.19;;;10.54;100.00
42601;BME280;28229;48.856;9.088;2022-09-12T03:43:53;97997.94;;;10.56;100.00
42601;BME280;28229;48.856;9.088;2022-09-12T03:46:21;98007.44;;;10.57;100.00
42601;BME280;28229;48.856;9.088;2022-09-12T03:48:47;98006.88;;;10.55;100.00
42601;BME280;28229;48.856;9.088;2022-09-12T03:51:13;98004.88;;;10.51;100.00
42601;BME280;28229;48.856;9.088;2022-09-12T03:53:38;97994.84;;;10.66;100.00
42601;BME280;28229;48.856;9.088;2022-09-12T03:56:09;98000.38;;;10.76;100.00
42601;BME280;28229;48.856;9.088;2022-09-12T03:58:39;98004.44;;;10.79;100.00
42601;BME280;28229;48.856;9.088;2022-09-12T04:01:07;98007.00;;;10.60;100.00
42601;BME280;28229;48.856;9.088;2022-09-12T04:03:41;98008.66;;;10.55;100.00
42601;BME280;28229;48.856;9.088;2022-09-12T04:06:08;98006.88;;;10.55;100.00
42601;BME280;28229;48.856;9.088;2022-09-12T04:08:36;98004.28;;;10.48;100.00
42601;BME280;28229;48.856;9.088;2022-09-12T04:11:12;98002.69;;;10.41;100.00
42601;BME280;28229;48.856;9.088;2022-09-12T04:13:39;98000.94;;;10.35;100.00
42601;BME280;28229;48.856;9.088;2022-09-12T04:16:06;97999.09;;;10.35;100.00
42601;BME280;28229;48.856;9.088;2022-09-12T04:18:32;97999.72;;;10.31;100.00
42601;BME280;28229;48.856;9.088;2022-09-12T04:21:05;97996.00;;;10.45;100.00
42601;BME280;28229;48.856;9.088;2022-09-12T04:23:32;97997.44;;;10.41;100.00
42601;BME280;28229;48.856;9.088;2022-09-12T04:26:00;97994.66;;;10.36;100.00
42601;BME280;28229;48.856;9.088;2022-09-12T04:28:27;98006.41;;;10.33;100.00
42601;BME280;28229;48.856;9.088;2022-09-12T04:31:04;97996.50;;;10.28;100.00
42601;BME280;28229;48.856;9.088;2022-09-12T04:33:30;97997.09;;;10.31;100.00
42601;BME280;28229;48.856;9.088;2022-09-12T04:36:04;98001.78;;;10.28;100.00
42601;BME280;28229;48.856;9.088;2022-09-12T04:38:31;98004.41;;;10.28;100.00
42601;BME280;28229;48.856;9.088;2022-09-12T04:40:57;97997.16;;;10.24;100.00
42601;BME280;28229;48.856;9.088;2022-09-12T04:43:23;97991.91;;;10.17;100.00
42601;BME280;28229;48.856;9.088;2022-09-12T04:45:49;97994.09;;;10.27;100.00
42601;BME280;28229;48.856;9.088;2022-09-12T04:48:14;97998.91;;;10.37;100.00
42601;BME280;28229;48.856;9.088;2022-09-12T04:50:40;97995.47;;;10.36;100.00
42601;BME280;28229;48.856;9.088;2022-09-12T04:53:07;97997.94;;;10.24;100.00
42601;BME280;28229;48.856;9.088;2022-09-12T04:55:33;97992.84;;;10.36;100.00
42601;BME280;28229;48.856;9.088;2022-09-12T04:58:00;97991.44;;;10.34;100.00
42601;BME280;28229;48.856;9.088;2022-09-12T05:00:26;97993.88;;;10.28;100.00
42601;BME280;28229;48.856;9.088;2022-09-12T05:02:54;97987.69;;;10.16;100.00
42601;BME280;28229;48.856;9.088;2022-09-12T05:05:19;97990.00;;;10.06;100.00
42601;BME280;28229;48.856;9.088;2022-09-12T05:07:46;97988.75;;;10.08;100.00
42601;BME280;28229;48.856;9.088;2022-09-12T05:10:12;97983.31;;;10.35;100.00
42601;BME280;28229;48.856;9.088;2022-09-12T05:12:38;97980.06;;;10.40;100.00
42601;BME280;28229;48.856;9.088;2022-09-12T05:15:05;97982.72;;;10.58;100.00
42601;BME280;28229;48.856;9.088;2022-09-12T05:17:30;97986.78;;;10.61;100.00
42601;BME280;28229;48.856;9.088;2022-09-12T05:19:56;97986.13;;;10.65;100.00
42601;BME280;28229;48.856;9.088;2022-09-12T05:22:22;97989.28;;;10.49;100.00
42601;BME280;28229;48.856;9.088;2022-09-12T05:24:48;97990.41;;;10.35;100.00
42601;BME280;28229;48.856;9.088;2022-09-12T05:27:14;97991.00;;;10.37;100.00
42601;BME280;28229;48.856;9.088;2022-09-12T05:29:47;97994.13;;;10.52;100.00
42601;BME280;28229;48.856;9.088;2022-09-12T05:32:12;97993.72;;;10.55;100.00
42601;BME280;28229;48.856;9.088;2022-09-12T05:34:39;97999.19;;;10.54;100.00
42601;BME280;28229;48.856;9.088;2022-09-12T05:37:05;98001.00;;;10.53;100.00
42601;BME280;28229;48.856;9.088;2022-09-12T05:39:30;97998.03;;;10.68;100.00
42601;BME280;28229;48.856;9.088;2022-09-12T05:41:56;98007.28;;;10.77;100.00
42601;BME280;28229;48.856;9.088;2022-09-12T05:44:22;98000.75;;;10.80;100.00
42601;BME280;28229;48.856;9.088;2022-09-12T05:46:49;98007.66;;;10.81;100.00
42601;BME280;28229;48.856;9.088;2022-09-12T05:49:15;98007.66;;;10.81;100.00
42601;BME280;28229;48.856;9.088;2022-09-12T05:51:43;98003.50;;;10.92;100.00
42601;BME280;28229;48.856;9.088;2022-09-12T05:54:11;98006.13;;;11.10;100.00
42601;BME280;28229;48.856;9.088;2022-09-12T05:56:40;98009.50;;;11.17;100.00
42601;BME280;28229;48.856;9.088;2022-09-12T05:59:11;98004.59;;;11.21;100.00
42601;BME280;28229;48.856;9.088;2022-09-12T06:01:37;98007.59;;;11.24;100.00
42601;BME280;28229;48.856;9.088;2022-09-12T06:04:04;98011.22;;;11.30;100.00
42601;BME280;28229;48.856;9.088;2022-09-12T06:06:35;98009.88;;;11.39;100.00
42601;BME280;28229;48.856;9.088;2022-09-12T06:09:03;98003.03;;;11.69;100.00
42601;BME280;28229;48.856;9.088;2022-09-12T06:11:32;98008.66;;;11.72;100.00
42601;BME280;28229;48.856;9.088;2022-09-12T06:13:58;98003.03;;;11.69;100.00
42601;BME280;28229;48.856;9.088;2022-09-12T06:16:31;98006.16;;;11.77;100.00
42601;BME280;28229;48.856;9.088;2022-09-12T06:19:03;98000.59;;;11.86;100.00
42601;BME280;28229;48.856;9.088;2022-09-12T06:21:30;97998.47;;;11.94;99.92
42601;BME280;28229;48.856;9.088;2022-09-12T06:23:57;97997.63;;;12.12;99.34
42601;BME280;28229;48.856;9.088;2022-09-12T06:26:26;98006.94;;;12.27;98.63
42601;BME280;28229;48.856;9.088;2022-09-12T06:28:54;97996.84;;;12.24;99.56
42601;BME280;28229;48.856;9.088;2022-09-12T06:31:31;97996.97;;;12.29;99.70
42601;BME280;28229;48.856;9.088;2022-09-12T06:34:00;98004.66;;;12.30;99.63
42601;BME280;28229;48.856;9.088;2022-09-12T06:36:28;97999.63;;;12.41;99.49
42601;BME280;28229;48.856;9.088;2022-09-12T06:38:56;97995.50;;;12.56;99.18
42601;BME280;28229;48.856;9.088;2022-09-12T06:41:23;97993.66;;;12.69;96.91
42601;BME280;28229;48.856;9.088;2022-09-12T06:43:49;97994.63;;;12.74;97.49
42601;BME280;28229;48.856;9.088;2022-09-12T06:46:15;97998.16;;;12.80;97.67
42601;BME280;28229;48.856;9.088;2022-09-12T06:48:42;97994.25;;;12.94;96.08
42601;BME280;28229;48.856;9.088;2022-09-12T06:51:10;98005.50;;;13.02;95.43
42601;BME280;28229;48.856;9.088;2022-09-12T06:53:38;98001.94;;;13.08;94.75
42601;BME280;28229;48.856;9.088;2022-09-12T06:56:07;98007.19;;;13.20;94.40
42601;BME280;28229;48.856;9.088;2022-09-12T06:58:34;98008.81;;;13.32;94.80
42601;BME280;28229;48.856;9.088;2022-09-12T07:03:30;98007.59;;;13.64;93.58
42601;BME280;28229;48.856;9.088;2022-09-12T07:05:57;98005.22;;;13.79;92.84
42601;BME280;28229;48.856;9.088;2022-09-12T07:08:26;98006.53;;;13.94;92.35
42601;BME280;28229;48.856;9.088;2022-09-12T07:10:58;97998.84;;;14.21;90.96
42601;BME280;28229;48.856;9.088;2022-09-12T07:13:25;97998.03;;;14.37;89.76
42601;BME280;28229;48.856;9.088;2022-09-12T07:15:51;97991.94;;;14.54;88.95
42601;BME280;28229;48.856;9.088;2022-09-12T07:18:17;97993.25;;;14.68;88.05
42601;BME280;28229;48.856;9.088;2022-09-12T07:20:43;97995.31;;;14.83;87.37
42601;BME280;28229;48.856;9.088;2022-09-12T07:23:09;98004.78;;;14.96;84.53
42601;BME280;28229;48.856;9.088;2022-09-12T07:25:34;98005.19;;;15.04;83.49
42601;BME280;28229;48.856;9.088;2022-09-12T07:28:01;98002.88;;;15.13;83.33
42601;BME280;28229;48.856;9.088;2022-09-12T07:30:27;97998.78;;;15.22;83.89
42601;BME280;28229;48.856;9.088;2022-09-12T07:32:53;98002.69;;;15.37;83.88
42601;BME280;28229;48.856;9.088;2022-09-12T07:35:20;98004.75;;;15.57;82.74
42601;BME280;28229;48.856;9.088;2022-09-12T07:37:46;98009.03;;;15.80;81.86
42601;BME280;28229;48.856;9.088;2022-09-12T07:40:12;98012.69;;;16.01;80.93
42601;BME280;28229;48.856;9.088;2022-09-12T07:42:37;98008.38;;;16.22;80.31
42601;BME280;28229;48.856;9.088;2022-09-12T07:45:03;98007.47;;;16.39;77.71
42601;BME280;28229;48.856;9.088;2022-09-12T07:47:29;97998.22;;;16.46;77.14
42601;BME280;28229;48.856;9.088;2022-09-12T07:49:55;98001.03;;;16.67;77.34
42601;BME280;28229;48.856;9.088;2022-09-12T07:52:21;97991.66;;;16.86;76.61
42601;BME280;28229;48.856;9.088;2022-09-12T07:54:47;97997.28;;;17.00;75.66
42601;BME280;28229;48.856;9.088;2022-09-12T07:57:13;98004.56;;;17.15;74.22
42601;BME280;28229;48.856;9.088;2022-09-12T07:59:40;98007.53;;;17.24;73.43
42601;BME280;28229;48.856;9.088;2022-09-12T08:02:11;98005.75;;;17.40;73.13
42601;BME280;28229;48.856;9.088;2022-09-12T08:04:40;97994.09;;;17.56;73.06
42601;BME280;28229;48.856;9.088;2022-09-12T08:07:09;97993.34;;;17.76;72.62
42601;BME280;28229;48.856;9.088;2022-09-12T08:09:35;97992.09;;;17.99;72.25
42601;BME280;28229;48.856;9.088;2022-09-12T08:12:01;98005.72;;;18.18;68.23
42601;BME280;28229;48.856;9.088;2022-09-12T08:14:27;97992.94;;;18.25;66.71
42601;BME280;28229;48.856;9.088;2022-09-12T08:16:53;97993.19;;;18.39;67.20
42601;BME280;28229;48.856;9.088;2022-09-12T08:19:19;97995.06;;;18.59;67.37
42601;BME280;28229;48.856;9.088;2022-09-12T08:21:47;97991.84;;;18.73;65.86
42601;BME280;28229;48.856;9.088;2022-09-12T08:24:13;97989.97;;;18.94;64.76
42601;BME280;28229;48.856;9.088;2022-09-12T08:26:40;97988.56;;;19.22;64.84
42601;BME280;28229;48.856;9.088;2022-09-12T08:29:05;97992.53;;;19.35;61.22
42601;BME280;28229;48.856;9.088;2022-09-12T08:31:31;97997.06;;;19.39;60.79
42601;BME280;28229;48.856;9.088;2022-09-12T08:34:02;98002.81;;;19.57;61.46
42601;BME280;28229;48.856;9.088;2022-09-12T08:36:28;98009.63;;;19.89;61.33
42601;BME280;28229;48.856;9.088;2022-09-12T08:38:56;97996.69;;;20.11;60.52
42601;BME280;28229;48.856;9.088;2022-09-12T08:49:43;97993.28;;;20.99;57.14
42601;BME280;28229;48.856;9.088;2022-09-12T08:52:23;97989.31;;;21.20;55.10
42601;BME280;28229;48.856;9.088;2022-09-12T08:54:49;97984.25;;;21.43;54.92
42601;BME280;28229;48.856;9.088;2022-09-12T08:57:15;97981.66;;;21.57;54.41
42601;BME280;28229;48.856;9.088;2022-09-12T08:59:44;97982.47;;;21.57;53.33
42601;BME280;28229;48.856;9.088;2022-09-12T09:05:16;97984.88;;;21.78;51.36
42601;BME280;28229;48.856;9.088;2022-09-12T09:13:20;97987.44;;;22.21;50.78
42601;BME280;28229;48.856;9.088;2022-09-12T09:16:18;97983.09;;;22.44;50.13
42601;BME280;28229;48.856;9.088;2022-09-12T09:18:46;97990.09;;;22.59;48.58
42601;BME280;28229;48.856;9.088;2022-09-12T09:21:28;97979.41;;;22.73;48.81
42601;BME280;28229;48.856;9.088;2022-09-12T09:24:09;97973.06;;;22.83;46.75
42601;BME280;28229;48.856;9.088;2022-09-12T09:26:46;97972.97;;;23.02;47.95
42601;BME280;28229;48.856;9.088;2022-09-12T09:29:16;97976.38;;;23.21;47.93
42601;BME280;28229;48.856;9.088;2022-09-12T09:31:46;97977.84;;;23.41;46.39
42601;BME280;28229;48.856;9.088;2022-09-12T09:34:24;97981.44;;;23.50;44.67
42601;BME280;28229;48.856;9.088;2022-09-12T09:37:15;97982.22;;;23.51;44.02
42601;BME280;28229;48.856;9.088;2022-09-12T09:42:53;97987.94;;;23.72;43.95
42601;BME280;28229;48.856;9.088;2022-09-12T09:45:23;97981.97;;;23.89;43.74
42601;BME280;28229;48.856;9.088;2022-09-12T09:48:16;97983.66;;;24.21;42.75
42601;BME280;28229;48.856;9.088;2022-09-12T09:50:47;97985.59;;;24.29;41.81
42601;BME280;28229;48.856;9.088;2022-09-12T09:53:32;97979.75;;;24.05;41.75
42601;BME280;28229;48.856;9.088;2022-09-12T09:56:04;97982.75;;;23.89;41.65
42601;BME280;28229;48.856;9.088;2022-09-12T09:58:33;97981.16;;;23.88;40.37
42601;BME280;28229;48.856;9.088;2022-09-12T10:01:02;97985.16;;;23.91;40.42
42601;BME280;28229;48.856;9.088;2022-09-12T10:03:38;97976.31;;;23.90;39.17
42601;BME280;28229;48.856;9.088;2022-09-12T10:06:07;97972.16;;;24.07;40.53
42601;BME280;28229;48.856;9.088;2022-09-12T10:08:48;97972.66;;;24.31;41.55
42601;BME280;28229;48.856;9.088;2022-09-12T10:13:51;97976.56;;;24.79;39.71
42601;BME280;28229;48.856;9.088;2022-09-12T10:16:20;97976.34;;;24.58;38.50
42601;BME280;28229;48.856;9.088;2022-09-12T10:19:01;97971.97;;;24.71;38.63
42601;BME280;28229;48.856;9.088;2022-09-12T10:21:35;97967.53;;;25.06;39.08
42601;BME280;28229;48.856;9.088;2022-09-12T10:24:23;97965.13;;;25.54;38.77
42601;BME280;28229;48.856;9.088;2022-09-12T10:27:14;97965.00;;;25.76;37.88
42601;BME280;28229;48.856;9.088;2022-09-12T10:29:52;97963.59;;;25.96;36.94
42601;BME280;28229;48.856;9.088;2022-09-12T10:32:33;97963.38;;;25.49;36.75
42601;BME280;28229;48.856;9.088;2022-09-12T10:35:03;97961.97;;;25.69;37.36
42601;BME280;28229;48.856;9.088;2022-09-12T10:37:32;97967.53;;;25.90;36.49
42601;BME280;28229;48.856;9.088;2022-09-12T10:40:00;97954.06;;;26.16;37.50
42601;BME280;28229;48.856;9.088;2022-09-12T10:47:56;97947.88;;;25.55;36.83
42601;BME280;28229;48.856;9.088;2022-09-12T10:50:40;97942.31;;;25.86;37.10
42601;BME280;28229;48.856;9.088;2022-09-12T10:53:21;97944.84;;;25.91;36.95
42601;BME280;28229;48.856;9.088;2022-09-12T10:56:05;97947.09;;;26.24;36.21
42601;BME280;28229;48.856;9.088;2022-09-12T11:01:45;97943.09;;;26.86;34.77
42601;BME280;28229;48.856;9.088;2022-09-12T11:12:59;97927.09;;;27.70;34.59
42601;BME280;28229;48.856;9.088;2022-09-12T11:15:36;97925.81;;;27.89;33.53
42601;BME280;28229;48.856;9.088;2022-09-12T11:21:18;97920.75;;;27.66;32.33
42601;BME280;28229;48.856;9.088;2022-09-12T11:24:07;97907.19;;;27.24;31.72
42601;BME280;28229;48.856;9.088;2022-09-12T11:29:49;97901.22;;;27.82;32.83
42601;BME280;28229;48.856;9.088;2022-09-12T11:35:32;97909.34;;;27.82;30.94
42601;BME280;28229;48.856;9.088;2022-09-12T11:38:21;97911.59;;;27.59;30.44
42601;BME280;28229;48.856;9.088;2022-09-12T11:41:02;97909.06;;;27.53;31.14
42601;BME280;28229;48.856;9.088;2022-09-12T11:43:36;97905.91;;;27.72;31.40
42601;BME280;28229;48.856;9.088;2022-09-12T11:46:19;97901.31;;;27.94;31.13
42601;BME280;28229;48.856;9.088;2022-09-12T11:54:17;97894.00;;;28.53;30.74
42601;BME280;28229;48.856;9.088;2022-09-12T11:56:49;97892.69;;;28.71;29.76
42601;BME280;28229;48.856;9.088;2022-09-12T12:01:57;97887.50;;;28.66;29.12
42601;BME280;28229;48.856;9.088;2022-09-12T12:04:31;97882.97;;;29.07;30.02
42601;BME280;28229;48.856;9.088;2022-09-12T12:07:09;97890.34;;;29.19;28.98
42601;BME280;28229;48.856;9.088;2022-09-12T12:09:48;97884.56;;;28.83;28.90
42601;BME280;28229;48.856;9.088;2022-09-12T12:12:20;97885.88;;;29.14;27.87
42601;BME280;28229;48.856;9.088;2022-09-12T12:14:50;97875.75;;;29.11;27.48
42601;BME280;28229;48.856;9.088;2022-09-12T12:17:21;97871.69;;;29.17;28.07
42601;BME280;28229;48.856;9.088;2022-09-12T12:19:58;97867.56;;;29.48;28.77
42601;BME280;28229;48.856;9.088;2022-09-12T12:22:24;97865.63;;;29.61;27.38
42601;BME280;28229;48.856;9.088;2022-09-12T12:27:52;97857.00;;;29.59;28.30
42601;BME280;28229;48.856;9.088;2022-09-12T12:33:01;97859.22;;;29.41;27.97
42601;BME280;28229;48.856;9.088;2022-09-12T12:35:43;97855.34;;;29.54;27.79
42601;BME280;28229;48.856;9.088;2022-09-12T12:38:38;97859.69;;;29.43;26.36
42601;BME280;28229;48.856;9.088;2022-09-12T12:43:50;97843.28;;;28.86;26.38
42601;BME280;28229;48.856;9.088;2022-09-12T12:46:19;97847.94;;;28.86;27.14
42601;BME280;28229;48.856;9.088;2022-09-12T12:57:27;97840.91;;;28.97;26.59
42601;BME280;28229;48.856;9.088;2022-09-12T13:02:34;97829.91;;;29.31;26.44
42601;BME280;28229;48.856;9.088;2022-09-12T13:05:16;97830.22;;;29.70;26.98
42601;BME280;28229;48.856;9.088;2022-09-12T13:07:44;97825.13;;;29.80;25.47
42601;BME280;28229;48.856;9.088;2022-09-12T13:10:20;97828.63;;;29.81;25.93
42601;BME280;28229;48.856;9.088;2022-09-12T13:12:49;97824.34;;;30.12;25.15
42601;BME280;28229;48.856;9.088;2022-09-12T13:18:02;97813.16;;;30.29;25.45
42601;BME280;28229;48.856;9.088;2022-09-12T13:20:36;97810.13;;;30.47;25.14
42601;BME280;28229;48.856;9.088;2022-09-12T13:23:20;97817.38;;;30.43;25.57
42601;BME280;28229;48.856;9.088;2022-09-12T13:25:53;97814.03;;;30.02;25.53
42601;BME280;28229;48.856;9.088;2022-09-12T13:28:19;97808.94;;;29.84;25.35
42601;BME280;28229;48.856;9.088;2022-09-12T13:33:26;97802.22;;;29.94;26.19
42601;BME280;28229;48.856;9.088;2022-09-12T13:36:27;97798.81;;;30.13;26.07
42601;BME280;28229;48.856;9.088;2022-09-12T13:39:19;97787.41;;;30.23;24.76
42601;BME280;28229;48.856;9.088;2022-09-12T13:44:44;97785.16;;;29.93;26.29
42601;BME280;28229;48.856;9.088;2022-09-12T13:47:22;97783.94;;;30.07;24.95
42601;BME280;28229;48.856;9.088;2022-09-12T13:49:51;97784.72;;;29.91;24.86
42601;BME280;28229;48.856;9.088;2022-09-12T13:52:23;97795.72;;;29.54;24.85
42601;BME280;28229;48.856;9.088;2022-09-12T13:54:53;97788.72;;;29.82;25.94
42601;BME280;28229;48.856;9.088;2022-09-12T13:57:37;97774.03;;;29.83;26.10
42601;BME280;28229;48.856;9.088;2022-09-12T14:00:10;97774.13;;;29.86;25.80
42601;BME280;28229;48.856;9.088;2022-09-12T14:02:38;97774.41;;;30.13;25.77
42601;BME280;28229;48.856;9.088;2022-09-12T14:05:23;97774.47;;;30.32;24.54
42601;BME280;28229;48.856;9.088;2022-09-12T14:07:59;97768.44;;;30.23;25.46
42601;BME280;28229;48.856;9.088;2022-09-12T14:10:34;97764.50;;;30.05;24.95
42601;BME280;28229;48.856;9.088;2022-09-12T14:13:03;97760.31;;;29.91;25.39
42601;BME280;28229;48.856;9.088;2022-09-12T14:15:35;97759.44;;;30.03;25.11
42601;BME280;28229;48.856;9.088;2022-09-12T14:18:04;97755.19;;;29.74;25.88
42601;BME280;28229;48.856;9.088;2022-09-12T14:20:35;97750.84;;;30.01;25.36
42601;BME280;28229;48.856;9.088;2022-09-12T14:23:22;97753.66;;;30.05;25.24
42601;BME280;28229;48.856;9.088;2022-09-12T14:25:49;97757.13;;;29.89;25.59
42601;BME280;28229;48.856;9.088;2022-09-12T14:28:17;97747.53;;;29.76;25.67
42601;BME280;28229;48.856;9.088;2022-09-12T14:31:41;97744.16;;;29.67;25.69
42601;BME280;28229;48.856;9.088;2022-09-12T14:33:55;97751.34;;;29.75;25.95
42601;BME280;28229;48.856;9.088;2022-09-12T14:36:38;97743.31;;;29.94;25.52
42601;BME280;28229;48.856;9.088;2022-09-12T14:39:06;97740.78;;;30.02;26.06
42601;BME280;28229;48.856;9.088;2022-09-12T14:41:40;97746.28;;;30.21;24.91
42601;BME280;28229;48.856;9.088;2022-09-12T14:44:16;97742.03;;;30.04;23.98
42601;BME280;28229;48.856;9.088;2022-09-12T14:46:44;97732.38;;;30.07;24.88
42601;BME280;28229;48.856;9.088;2022-09-12T14:49:20;97739.31;;;30.20;24.79
42601;BME280;28229;48.856;9.088;2022-09-12T14:51:58;97731.25;;;30.24;24.58
42601;BME280;28229;48.856;9.088;2022-09-12T14:56:57;97724.72;;;29.49;25.04
42601;BME280;28229;48.856;9.088;2022-09-12T15:04:46;97727.47;;;29.20;26.30
42601;BME280;28229;48.856;9.088;2022-09-12T15:09:39;97720.91;;;29.66;25.94
42601;BME280;28229;48.856;9.088;2022-09-12T15:12:05;97720.28;;;29.72;24.80
42601;BME280;28229;48.856;9.088;2022-09-12T15:14:30;97715.78;;;29.48;24.90
42601;BME280;28229;48.856;9.088;2022-09-12T15:16:56;97710.31;;;29.60;25.29
42601;BME280;28229;48.856;9.088;2022-09-12T15:19:22;97707.28;;;29.78;26.01
42601;BME280;28229;48.856;9.088;2022-09-12T15:21:48;97708.66;;;29.72;25.48
42601;BME280;28229;48.856;9.088;2022-09-12T15:24:14;97707.78;;;29.68;25.36
42601;BME280;28229;48.856;9.088;2022-09-12T15:26:39;97710.81;;;29.66;25.07
42601;BME280;28229;48.856;9.088;2022-09-12T15:29:05;97720.03;;;29.61;25.56
42601;BME280;28229;48.856;9.088;2022-09-12T15:31:31;97702.31;;;29.36;25.75
42601;BME280;28229;48.856;9.088;2022-09-12T15:33:59;97700.19;;;29.01;25.49
42601;BME280;28229;48.856;9.088;2022-09-12T15:36:26;97708.13;;;28.94;25.85
42601;BME280;28229;48.856;9.088;2022-09-12T15:38:53;97704.25;;;28.95;26.19